Sidman, PA

4:31 PM EDT on July 03, 2015 (GMT -0400)
Fifty Acre Road, Adams Twp | | Change Station
CLOSE
Current Station
Personal Weather Station
Location: Johnstown, PA
Elevation: 2122 ft
Nearby Weather Stations

Elev 2122 ft 40.31 °N, 78.81 °W | Updated 28 minutes ago

Partly Cloudy
Partly Cloudy
72.7 °F
Feels Like 77 °F
N
2.0
Wind Variable Wind from SW
Gusts 4.0 mph

Today
High -- | Low -- °F
--% Chance of Precip.
Yesterday
High -- | Low -- °F
Precip. -- in
5:49 AM 8:48 PM
Waning Gibbous, 96% visible
Pressure 29.96 in
Visibility 8.0 miles
Clouds Scattered Clouds 4400 ft
Heat Index 77 °F
Dew Point 52 °F
Humidity 49%
Rainfall 0.00 in
Snow Depth Not available.
UV 7 out of 12
Pollen 3.00 out of 12
Air Quality Not available.
Flu Activity Not available.
METAR KJST 031954Z AUTO 14006G15KT 8SM SCT044 21/13 A2999 RMK AO2 SLP146 T02110133

More Conditions Fewer Conditions

Pressure 29.96 in
Visibility 8.0 miles
Clouds Scattered Clouds 4400 ft
Heat Index 77 °F
Dew Point 52 °F
Humidity 49%
Rainfall 0.00 in
Snow Depth Not available.
UV 7 out of 12
Pollen 3.00 out of 12
Air Quality Not available.
Flu Activity Not available.
METAR KJST 031954Z AUTO 14006G15KT 8SM SCT044 21/13 A2999 RMK AO2 SLP146 T02110133

More Conditions Fewer Conditions

Nowcast | as of 4:29 PM EDT on July 3, 2015

A few showers will be across south central Pennsylvania through 730 PM. Most of the showers will be south of a Johnstown...Chambersburg...York line. However...a few light showers may get as far north as Route 22 by sunset. The showers are moving north at 15 mph.

×

10-Day Weather Forecast

×

Almanac

Astronomy

Jul. 03, 2015 Rise Set
Actual Time
Civil Twilight
Nautical Twilight
Astronomical Twilight
Moon
Length of Visible Light
Length of Day
Tomorrow will be .
, % of the Moon is Illuminated

Today's Extremes

State Highs State Lows

Community

WunderPhotos

Upload Photos

1,834,774 photos uploaded!

WunderBlogs® & News

Nearby

Air Quality

  Air Quality AQ Index Pollutant
Not available.

Snow Depth

Station Depth Elevation

Earthquake Activity

City Distance Mag. Time & Date
Minimum magnitude displayed is 2.5.

Coastal Water Temperatures

Place Temperature

Stations

Nearby Weather Stations

Station Location Temp. Windchill Dew Point Humidity Wind Precip. Elev Updated Type